Grand Isle, Maine
Current Conditions -  °F | °C
As of 2:53 PM on Monday 24 Nov 2014 (Local Time) from KFVE Reporting Station
Light Rain Light Rain  
Wind Chill: 36°   Ceiling: 400
Heat Index: 44°   Visibility: 6mi
Dew Point: 43°   Wind: 20mph
Humidity: 96%   Direction: 160°SSE
Pressure: 29.51"   Gusts: 28mph
Location:  47.31°N, 68.15°W
Report Text: KFVE 241953Z AUTO 16017G24KT 6SM -RA BR OVC004 07/06 A2951 RMK AO2 PK WND 15032/1915 CIG 002V007 SLP999 P0003 T00670061
Loading
Personal Weather Stations






























Interactive Weather Map New forecast layout! Learn more

10-Day Weather Forecast

Advertisements
Track Severe Weather on mobile